sensor_id;sensor_type;location;lat;lon;timestamp;temperature;humidity
71291;DHT22;59073;51.994;4.448;2023-03-11T00:00:58;3.26;57.51
71291;DHT22;59073;51.994;4.448;2023-03-11T00:03:24;3.26;57.96
71291;DHT22;59073;51.994;4.448;2023-03-11T00:05:52;3.24;57.66
71291;DHT22;59073;51.994;4.448;2023-03-11T00:08:20;3.13;58.38
71291;DHT22;59073;51.994;4.448;2023-03-11T00:10:51;3.16;58.38
71291;DHT22;59073;51.994;4.448;2023-03-11T00:13:17;3.09;58.25
71291;DHT22;59073;51.994;4.448;2023-03-11T00:15:45;3.04;58.71
71291;DHT22;59073;51.994;4.448;2023-03-11T00:18:11;3.06;58.21
71291;DHT22;59073;51.994;4.448;2023-03-11T00:20:41;3.07;58.49
71291;DHT22;59073;51.994;4.448;2023-03-11T00:23:07;3.13;58.88
71291;DHT22;59073;51.994;4.448;2023-03-11T00:25:35;3.16;58.61
71291;DHT22;59073;51.994;4.448;2023-03-11T00:28:01;3.19;58.19
71291;DHT22;59073;51.994;4.448;2023-03-11T00:30:27;3.16;58.56
71291;DHT22;59073;51.994;4.448;2023-03-11T00:32:56;3.16;58.21
71291;DHT22;59073;51.994;4.448;2023-03-11T00:35:28;3.16;57.94
71291;DHT22;59073;51.994;4.448;2023-03-11T00:38:00;3.14;57.02
71291;DHT22;59073;51.994;4.448;2023-03-11T00:40:27;3.14;58.28
71291;DHT22;59073;51.994;4.448;2023-03-11T00:42:53;3.14;58.67
71291;DHT22;59073;51.994;4.448;2023-03-11T00:45:19;3.13;58.39
71291;DHT22;59073;51.994;4.448;2023-03-11T00:47:45;3.16;59.02
71291;DHT22;59073;51.994;4.448;2023-03-11T00:50:15;3.17;57.55
71291;DHT22;59073;51.994;4.448;2023-03-11T00:52:42;3.24;56.69
71291;DHT22;59073;51.994;4.448;2023-03-11T00:55:09;3.17;57.69
71291;DHT22;59073;51.994;4.448;2023-03-11T00:57:35;3.17;59.53
71291;DHT22;59073;51.994;4.448;2023-03-11T01:00:00;3.17;58.21
71291;DHT22;59073;51.994;4.448;2023-03-11T01:02:26;3.28;59.97
71291;DHT22;59073;51.994;4.448;2023-03-11T01:04:54;3.31;59.49
71291;DHT22;59073;51.994;4.448;2023-03-11T01:07:21;3.31;59.05
71291;DHT22;59073;51.994;4.448;2023-03-11T01:09:46;3.34;57.40
71291;DHT22;59073;51.994;4.448;2023-03-11T01:12:11;3.37;57.24
71291;DHT22;59073;51.994;4.448;2023-03-11T01:14:37;3.44;57.61
71291;DHT22;59073;51.994;4.448;2023-03-11T01:17:02;3.45;59.05
71291;DHT22;59073;51.994;4.448;2023-03-11T01:19:28;3.43;58.59
71291;DHT22;59073;51.994;4.448;2023-03-11T01:21:53;3.38;58.32
71291;DHT22;59073;51.994;4.448;2023-03-11T01:24:18;3.35;58.16
71291;DHT22;59073;51.994;4.448;2023-03-11T01:26:44;3.27;58.81
71291;DHT22;59073;51.994;4.448;2023-03-11T01:29:09;3.19;59.80
71291;DHT22;59073;51.994;4.448;2023-03-11T01:31:35;3.16;59.99
71291;DHT22;59073;51.994;4.448;2023-03-11T01:34:00;3.12;60.55
71291;DHT22;59073;51.994;4.448;2023-03-11T01:36:25;3.10;61.47
71291;DHT22;59073;51.994;4.448;2023-03-11T01:38:51;3.02;60.73
71291;DHT22;59073;51.994;4.448;2023-03-11T01:41:16;3.04;60.83
71291;DHT22;59073;51.994;4.448;2023-03-11T01:46:15;3.07;60.99
71291;DHT22;59073;51.994;4.448;2023-03-11T01:51:22;3.03;61.96
71291;DHT22;59073;51.994;4.448;2023-03-11T01:53:48;3.00;61.81
71291;DHT22;59073;51.994;4.448;2023-03-11T01:56:14;3.02;62.08
71291;DHT22;59073;51.994;4.448;2023-03-11T01:58:45;3.07;62.06
71291;DHT22;59073;51.994;4.448;2023-03-11T02:01:15;3.13;61.75
71291;DHT22;59073;51.994;4.448;2023-03-11T02:03:41;3.19;61.85
71291;DHT22;59073;51.994;4.448;2023-03-11T02:06:11;3.20;61.49
71291;DHT22;59073;51.994;4.448;2023-03-11T02:08:40;3.30;61.25
71291;DHT22;59073;51.994;4.448;2023-03-11T02:11:11;3.35;60.50
71291;DHT22;59073;51.994;4.448;2023-03-11T02:13:40;3.34;60.17
71291;DHT22;59073;51.994;4.448;2023-03-11T02:16:06;3.41;60.67
71291;DHT22;59073;51.994;4.448;2023-03-11T02:18:32;3.37;60.45
71291;DHT22;59073;51.994;4.448;2023-03-11T02:23:59;3.34;60.88
71291;DHT22;59073;51.994;4.448;2023-03-11T02:29:05;3.27;60.35
71291;DHT22;59073;51.994;4.448;2023-03-11T02:31:32;3.16;60.40
71291;DHT22;59073;51.994;4.448;2023-03-11T02:34:02;3.10;61.07
71291;DHT22;59073;51.994;4.448;2023-03-11T02:36:32;3.00;61.59
71291;DHT22;59073;51.994;4.448;2023-03-11T02:38:58;2.96;61.90
71291;DHT22;59073;51.994;4.448;2023-03-11T02:41:23;3.02;61.33
71291;DHT22;59073;51.994;4.448;2023-03-11T02:43:49;2.99;60.45
71291;DHT22;59073;51.994;4.448;2023-03-11T02:46:14;3.06;60.57
71291;DHT22;59073;51.994;4.448;2023-03-11T02:48:41;3.09;61.28
71291;DHT22;59073;51.994;4.448;2023-03-11T02:51:07;3.09;60.47
71291;DHT22;59073;51.994;4.448;2023-03-11T02:53:39;3.04;60.07
71291;DHT22;59073;51.994;4.448;2023-03-11T02:56:05;3.07;59.85
71291;DHT22;59073;51.994;4.448;2023-03-11T02:58:31;3.02;59.99
71291;DHT22;59073;51.994;4.448;2023-03-11T03:00:56;3.00;60.59
71291;DHT22;59073;51.994;4.448;2023-03-11T03:03:22;3.03;60.65
71291;DHT22;59073;51.994;4.448;2023-03-11T03:05:47;3.07;61.58
71291;DHT22;59073;51.994;4.448;2023-03-11T03:08:12;3.09;61.25
71291;DHT22;59073;51.994;4.448;2023-03-11T03:10:38;2.97;60.60
71291;DHT22;59073;51.994;4.448;2023-03-11T03:13:03;3.06;61.45
71291;DHT22;59073;51.994;4.448;2023-03-11T03:15:29;3.02;62.64
71291;DHT22;59073;51.994;4.448;2023-03-11T03:17:54;2.86;62.83
71291;DHT22;59073;51.994;4.448;2023-03-11T03:20:20;2.78;63.42
71291;DHT22;59073;51.994;4.448;2023-03-11T03:22:47;2.72;64.13
71291;DHT22;59073;51.994;4.448;2023-03-11T03:25:13;2.62;64.29
71291;DHT22;59073;51.994;4.448;2023-03-11T03:27:39;2.58;64.41
71291;DHT22;59073;51.994;4.448;2023-03-11T03:30:05;2.55;64.78
71291;DHT22;59073;51.994;4.448;2023-03-11T03:32:31;2.58;66.18
71291;DHT22;59073;51.994;4.448;2023-03-11T03:34:56;2.52;68.07
71291;DHT22;59073;51.994;4.448;2023-03-11T03:37:27;2.45;67.97
71291;DHT22;59073;51.994;4.448;2023-03-11T03:39:53;2.37;67.42
71291;DHT22;59073;51.994;4.448;2023-03-11T03:42:20;2.34;67.22
71291;DHT22;59073;51.994;4.448;2023-03-11T03:44:46;2.37;67.74
71291;DHT22;59073;51.994;4.448;2023-03-11T03:47:11;2.32;67.92
71291;DHT22;59073;51.994;4.448;2023-03-11T03:49:37;2.25;67.34
71291;DHT22;59073;51.994;4.448;2023-03-11T03:52:04;2.25;67.62
71291;DHT22;59073;51.994;4.448;2023-03-11T03:54:30;2.27;68.04
71291;DHT22;59073;51.994;4.448;2023-03-11T03:56:56;2.01;69.00
71291;DHT22;59073;51.994;4.448;2023-03-11T03:59:22;1.90;69.97
71291;DHT22;59073;51.994;4.448;2023-03-11T04:01:47;1.59;72.30
71291;DHT22;59073;51.994;4.448;2023-03-11T04:04:13;1.35;73.94
71291;DHT22;59073;51.994;4.448;2023-03-11T04:06:38;1.09;74.77
71291;DHT22;59073;51.994;4.448;2023-03-11T04:09:03;1.08;74.17
71291;DHT22;59073;51.994;4.448;2023-03-11T04:11:30;1.34;73.57
71291;DHT22;59073;51.994;4.448;2023-03-11T04:13:56;1.36;73.28
71291;DHT22;59073;51.994;4.448;2023-03-11T04:16:23;1.43;73.13
71291;DHT22;59073;51.994;4.448;2023-03-11T04:18:49;1.56;73.54
71291;DHT22;59073;51.994;4.448;2023-03-11T04:21:15;1.59;72.63
71291;DHT22;59073;51.994;4.448;2023-03-11T04:23:40;1.41;73.84
71291;DHT22;59073;51.994;4.448;2023-03-11T04:26:06;1.50;73.48
71291;DHT22;59073;51.994;4.448;2023-03-11T04:28:31;1.64;73.28
71291;DHT22;59073;51.994;4.448;2023-03-11T04:30:57;1.66;72.44
71291;DHT22;59073;51.994;4.448;2023-03-11T04:33:22;1.59;71.90
71291;DHT22;59073;51.994;4.448;2023-03-11T04:35:48;1.60;71.87
71291;DHT22;59073;51.994;4.448;2023-03-11T04:38:13;1.55;71.99
71291;DHT22;59073;51.994;4.448;2023-03-11T04:40:38;1.48;72.26
71291;DHT22;59073;51.994;4.448;2023-03-11T04:43:04;1.41;72.55
71291;DHT22;59073;51.994;4.448;2023-03-11T04:45:30;1.42;72.94
71291;DHT22;59073;51.994;4.448;2023-03-11T04:47:56;1.46;72.72
71291;DHT22;59073;51.994;4.448;2023-03-11T04:50:21;1.48;73.27
71291;DHT22;59073;51.994;4.448;2023-03-11T04:52:46;1.41;73.31
71291;DHT22;59073;51.994;4.448;2023-03-11T04:55:13;1.31;73.19
71291;DHT22;59073;51.994;4.448;2023-03-11T04:57:42;1.27;73.28
71291;DHT22;59073;51.994;4.448;2023-03-11T05:00:13;1.35;73.91
71291;DHT22;59073;51.994;4.448;2023-03-11T05:02:40;1.31;73.81
71291;DHT22;59073;51.994;4.448;2023-03-11T05:05:07;1.32;74.18
71291;DHT22;59073;51.994;4.448;2023-03-11T05:07:34;1.27;73.89
71291;DHT22;59073;51.994;4.448;2023-03-11T05:09:59;1.25;74.04
71291;DHT22;59073;51.994;4.448;2023-03-11T05:12:25;1.17;74.35
71291;DHT22;59073;51.994;4.448;2023-03-11T05:14:50;1.07;74.78
71291;DHT22;59073;51.994;4.448;2023-03-11T05:17:16;1.02;74.80
71291;DHT22;59073;51.994;4.448;2023-03-11T05:19:43;0.94;74.62
71291;DHT22;59073;51.994;4.448;2023-03-11T05:22:09;0.85;74.66
71291;DHT22;59073;51.994;4.448;2023-03-11T05:24:34;0.83;74.76
71291;DHT22;59073;51.994;4.448;2023-03-11T05:27:00;0.81;74.72
71291;DHT22;59073;51.994;4.448;2023-03-11T05:29:26;0.69;75.62
71291;DHT22;59073;51.994;4.448;2023-03-11T05:31:52;0.69;75.93
71291;DHT22;59073;51.994;4.448;2023-03-11T05:34:17;0.77;76.20
71291;DHT22;59073;51.994;4.448;2023-03-11T05:36:44;0.74;75.94
71291;DHT22;59073;51.994;4.448;2023-03-11T05:39:10;0.78;75.79
71291;DHT22;59073;51.994;4.448;2023-03-11T05:41:35;0.83;75.60
71291;DHT22;59073;51.994;4.448;2023-03-11T05:44:02;0.81;75.32
71291;DHT22;59073;51.994;4.448;2023-03-11T05:46:28;0.74;75.11
71291;DHT22;59073;51.994;4.448;2023-03-11T05:48:53;0.64;75.35
71291;DHT22;59073;51.994;4.448;2023-03-11T05:51:19;0.66;75.68
71291;DHT22;59073;51.994;4.448;2023-03-11T05:53:46;0.64;75.68
71291;DHT22;59073;51.994;4.448;2023-03-11T05:56:18;0.64;75.72
71291;DHT22;59073;51.994;4.448;2023-03-11T05:58:44;0.59;75.75
71291;DHT22;59073;51.994;4.448;2023-03-11T06:01:12;0.70;75.77
71291;DHT22;59073;51.994;4.448;2023-03-11T06:03:39;0.70;76.27
71291;DHT22;59073;51.994;4.448;2023-03-11T06:06:06;0.66;76.55
71291;DHT22;59073;51.994;4.448;2023-03-11T06:08:32;0.70;76.97
71291;DHT22;59073;51.994;4.448;2023-03-11T06:11:02;0.69;76.56
71291;DHT22;59073;51.994;4.448;2023-03-11T06:13:28;0.83;76.33
71291;DHT22;59073;51.994;4.448;2023-03-11T06:15:53;0.94;75.88
71291;DHT22;59073;51.994;4.448;2023-03-11T06:18:19;1.25;75.70
71291;DHT22;59073;51.994;4.448;2023-03-11T06:20:44;1.32;75.03
71291;DHT22;59073;51.994;4.448;2023-03-11T06:23:10;1.60;74.72
71291;DHT22;59073;51.994;4.448;2023-03-11T06:25:35;1.96;73.74
71291;DHT22;59073;51.994;4.448;2023-03-11T06:28:00;2.30;72.54
71291;DHT22;59073;51.994;4.448;2023-03-11T06:30:26;2.65;71.15
71291;DHT22;59073;51.994;4.448;2023-03-11T06:32:51;2.73;70.89
71291;DHT22;59073;51.994;4.448;2023-03-11T06:35:17;3.13;70.15
71291;DHT22;59073;51.994;4.448;2023-03-11T06:37:42;3.60;68.72
71291;DHT22;59073;51.994;4.448;2023-03-11T06:40:08;3.99;68.96
71291;DHT22;59073;51.994;4.448;2023-03-11T06:42:35;4.78;68.33
71291;DHT22;59073;51.994;4.448;2023-03-11T06:45:00;5.28;66.97
71291;DHT22;59073;51.994;4.448;2023-03-11T06:47:26;5.33;65.87
71291;DHT22;59073;51.994;4.448;2023-03-11T06:49:51;5.38;65.00
71291;DHT22;59073;51.994;4.448;2023-03-11T06:52:17;5.94;62.64
71291;DHT22;59073;51.994;4.448;2023-03-11T06:54:43;6.49;61.59
71291;DHT22;59073;51.994;4.448;2023-03-11T06:57:09;6.59;60.17
71291;DHT22;59073;51.994;4.448;2023-03-11T06:59:35;6.75;60.38
71291;DHT22;59073;51.994;4.448;2023-03-11T07:02:06;6.97;59.75
71291;DHT22;59073;51.994;4.448;2023-03-11T07:04:32;6.28;59.89
71291;DHT22;59073;51.994;4.448;2023-03-11T07:06:58;5.31;62.36
71291;DHT22;59073;51.994;4.448;2023-03-11T07:09:23;5.33;63.28
71291;DHT22;59073;51.994;4.448;2023-03-11T07:11:50;5.93;63.71
71291;DHT22;59073;51.994;4.448;2023-03-11T07:14:16;6.21;61.59
71291;DHT22;59073;51.994;4.448;2023-03-11T07:16:42;6.45;60.67
71291;DHT22;59073;51.994;4.448;2023-03-11T07:19:08;6.41;62.20
71291;DHT22;59073;51.994;4.448;2023-03-11T07:21:34;6.05;62.16
71291;DHT22;59073;51.994;4.448;2023-03-11T07:24:01;6.03;64.19
71291;DHT22;59073;51.994;4.448;2023-03-11T07:26:28;6.00;65.01
71291;DHT22;59073;51.994;4.448;2023-03-11T07:28:55;5.57;65.06
71291;DHT22;59073;51.994;4.448;2023-03-11T07:31:24;5.36;63.29
71291;DHT22;59073;51.994;4.448;2023-03-11T07:33:50;5.22;63.63
71291;DHT22;59073;51.994;4.448;2023-03-11T07:36:18;5.05;64.61
71291;DHT22;59073;51.994;4.448;2023-03-11T07:38:45;5.07;65.75
71291;DHT22;59073;51.994;4.448;2023-03-11T07:41:11;5.22;65.85
71291;DHT22;59073;51.994;4.448;2023-03-11T07:43:38;5.29;65.34
71291;DHT22;59073;51.994;4.448;2023-03-11T07:46:10;5.52;65.96
71291;DHT22;59073;51.994;4.448;2023-03-11T07:48:38;5.77;65.66
71291;DHT22;59073;51.994;4.448;2023-03-11T07:51:06;5.98;63.74
71291;DHT22;59073;51.994;4.448;2023-03-11T07:53:34;5.98;63.84
71291;DHT22;59073;51.994;4.448;2023-03-11T07:56:00;5.86;62.88
71291;DHT22;59073;51.994;4.448;2023-03-11T07:58:27;5.63;63.60
71291;DHT22;59073;51.994;4.448;2023-03-11T08:00:55;5.62;63.15
71291;DHT22;59073;51.994;4.448;2023-03-11T08:03:22;5.78;63.98
71291;DHT22;59073;51.994;4.448;2023-03-11T08:05:48;6.04;63.61
71291;DHT22;59073;51.994;4.448;2023-03-11T08:08:17;6.27;63.37
71291;DHT22;59073;51.994;4.448;2023-03-11T08:10:45;6.50;63.59
71291;DHT22;59073;51.994;4.448;2023-03-11T08:13:10;6.79;62.66
71291;DHT22;59073;51.994;4.448;2023-03-11T08:15:36;6.76;63.07
71291;DHT22;59073;51.994;4.448;2023-03-11T08:18:02;6.92;62.92
71291;DHT22;59073;51.994;4.448;2023-03-11T08:20:28;7.32;61.41
71291;DHT22;59073;51.994;4.448;2023-03-11T08:22:59;7.75;61.84
71291;DHT22;59073;51.994;4.448;2023-03-11T08:25:25;8.09;61.25
71291;DHT22;59073;51.994;4.448;2023-03-11T08:27:50;8.32;59.53
71291;DHT22;59073;51.994;4.448;2023-03-11T08:30:16;8.20;58.20
71291;DHT22;59073;51.994;4.448;2023-03-11T08:32:45;8.17;59.76
71291;DHT22;59073;51.994;4.448;2023-03-11T08:35:10;8.60;59.39
71291;DHT22;59073;51.994;4.448;2023-03-11T08:37:36;8.79;58.08
71291;DHT22;59073;51.994;4.448;2023-03-11T08:40:01;8.82;56.74
71291;DHT22;59073;51.994;4.448;2023-03-11T08:42:26;8.68;58.16
71291;DHT22;59073;51.994;4.448;2023-03-11T08:44:52;8.72;57.36
71291;DHT22;59073;51.994;4.448;2023-03-11T08:47:17;8.50;57.36
71291;DHT22;59073;51.994;4.448;2023-03-11T08:49:43;8.47;56.21
71291;DHT22;59073;51.994;4.448;2023-03-11T08:52:08;8.74;54.85
71291;DHT22;59073;51.994;4.448;2023-03-11T08:54:33;8.60;54.54
71291;DHT22;59073;51.994;4.448;2023-03-11T08:56:59;8.64;57.86
71291;DHT22;59073;51.994;4.448;2023-03-11T08:59:28;8.85;57.47
71291;DHT22;59073;51.994;4.448;2023-03-11T09:01:54;9.19;56.16
71291;DHT22;59073;51.994;4.448;2023-03-11T09:04:20;9.30;56.40
71291;DHT22;59073;51.994;4.448;2023-03-11T09:06:45;9.35;55.82
71291;DHT22;59073;51.994;4.448;2023-03-11T09:09:14;9.29;53.81
71291;DHT22;59073;51.994;4.448;2023-03-11T09:11:40;9.02;52.39
71291;DHT22;59073;51.994;4.448;2023-03-11T09:14:06;8.82;55.13
71291;DHT22;59073;51.994;4.448;2023-03-11T09:16:33;8.75;54.73
71291;DHT22;59073;51.994;4.448;2023-03-11T09:18:58;8.72;55.78
71291;DHT22;59073;51.994;4.448;2023-03-11T09:21:34;8.58;54.86
71291;DHT22;59073;51.994;4.448;2023-03-11T09:24:00;8.44;55.19
71291;DHT22;59073;51.994;4.448;2023-03-11T09:26:25;8.51;55.77
71291;DHT22;59073;51.994;4.448;2023-03-11T09:28:51;8.48;57.42
71291;DHT22;59073;51.994;4.448;2023-03-11T09:31:17;8.71;55.72
71291;DHT22;59073;51.994;4.448;2023-03-11T09:33:44;8.89;56.34
71291;DHT22;59073;51.994;4.448;2023-03-11T09:36:16;9.77;63.10
71291;DHT22;59073;51.994;4.448;2023-03-11T09:38:42;10.80;58.84
71291;DHT22;59073;51.994;4.448;2023-03-11T09:44:10;11.34;52.95
71291;DHT22;59073;51.994;4.448;2023-03-11T09:47:01;11.19;53.17
71291;DHT22;59073;51.994;4.448;2023-03-11T09:50:02;10.72;52.98
71291;DHT22;59073;51.994;4.448;2023-03-11T09:52:43;10.73;51.54
71291;DHT22;59073;51.994;4.448;2023-03-11T09:55:26;10.92;50.40
71291;DHT22;59073;51.994;4.448;2023-03-11T09:57:58;10.93;52.07
71291;DHT22;59073;51.994;4.448;2023-03-11T10:00:24;10.83;52.59
71291;DHT22;59073;51.994;4.448;2023-03-11T10:02:50;10.79;50.98
71291;DHT22;59073;51.994;4.448;2023-03-11T10:11:03;10.45;53.82
71291;DHT22;59073;51.994;4.448;2023-03-11T10:13:39;10.24;50.27
71291;DHT22;59073;51.994;4.448;2023-03-11T10:16:22;9.86;54.37
71291;DHT22;59073;51.994;4.448;2023-03-11T10:19:10;9.87;53.37
71291;DHT22;59073;51.994;4.448;2023-03-11T10:24:35;9.71;51.55
71291;DHT22;59073;51.994;4.448;2023-03-11T10:27:10;9.70;50.71
71291;DHT22;59073;51.994;4.448;2023-03-11T10:30:15;10.02;54.33
71291;DHT22;59073;51.994;4.448;2023-03-11T10:32:48;10.17;55.61
71291;DHT22;59073;51.994;4.448;2023-03-11T10:35:35;10.32;55.54
71291;DHT22;59073;51.994;4.448;2023-03-11T10:38:21;10.27;54.57
71291;DHT22;59073;51.994;4.448;2023-03-11T10:40:50;10.17;53.08
71291;DHT22;59073;51.994;4.448;2023-03-11T10:43:40;10.11;52.11
71291;DHT22;59073;51.994;4.448;2023-03-11T10:46:22;9.94;53.24
71291;DHT22;59073;51.994;4.448;2023-03-11T10:48:49;9.90;55.65
71291;DHT22;59073;51.994;4.448;2023-03-11T10:51:22;10.08;55.81
71291;DHT22;59073;51.994;4.448;2023-03-11T10:53:54;10.02;53.33
71291;DHT22;59073;51.994;4.448;2023-03-11T10:56:27;9.94;51.65
71291;DHT22;59073;51.994;4.448;2023-03-11T10:58:54;9.93;53.35
71291;DHT22;59073;51.994;4.448;2023-03-11T11:01:20;9.77;51.65
71291;DHT22;59073;51.994;4.448;2023-03-11T11:03:48;10.04;53.95
71291;DHT22;59073;51.994;4.448;2023-03-11T11:08:45;11.10;50.20
71291;DHT22;59073;51.994;4.448;2023-03-11T11:11:22;10.60;51.66
71291;DHT22;59073;51.994;4.448;2023-03-11T11:13:56;10.31;51.77
71291;DHT22;59073;51.994;4.448;2023-03-11T11:16:22;10.56;51.78
71291;DHT22;59073;51.994;4.448;2023-03-11T11:19:01;11.00;49.68
71291;DHT22;59073;51.994;4.448;2023-03-11T11:24:25;10.44;50.71
71291;DHT22;59073;51.994;4.448;2023-03-11T11:29:28;10.90;48.55
71291;DHT22;59073;51.994;4.448;2023-03-11T11:37:33;11.50;45.75
71291;DHT22;59073;51.994;4.448;2023-03-11T11:42:39;11.58;48.42
71291;DHT22;59073;51.994;4.448;2023-03-11T11:45:34;11.40;46.51
71291;DHT22;59073;51.994;4.448;2023-03-11T11:48:11;10.66;48.51
71291;DHT22;59073;51.994;4.448;2023-03-11T11:50:52;10.68;48.54
71291;DHT22;59073;51.994;4.448;2023-03-11T11:53:45;10.11;49.40
71291;DHT22;59073;51.994;4.448;2023-03-11T11:56:14;10.22;53.66
71291;DHT22;59073;51.994;4.448;2023-03-11T11:58:39;10.29;52.25
71291;DHT22;59073;51.994;4.448;2023-03-11T12:09:29;10.53;48.24
71291;DHT22;59073;51.994;4.448;2023-03-11T12:17:37;10.58;50.11
71291;DHT22;59073;51.994;4.448;2023-03-11T12:20:28;10.32;52.00
71291;DHT22;59073;51.994;4.448;2023-03-11T12:26:26;9.70;51.87
71291;DHT22;59073;51.994;4.448;2023-03-11T12:32:38;10.69;53.57
71291;DHT22;59073;51.994;4.448;2023-03-11T12:35:32;10.46;50.60
71291;DHT22;59073;51.994;4.448;2023-03-11T12:40:56;10.41;51.85
71291;DHT22;59073;51.994;4.448;2023-03-11T12:46:07;10.83;50.31
71291;DHT22;59073;51.994;4.448;2023-03-11T12:48:42;11.13;47.12
71291;DHT22;59073;51.994;4.448;2023-03-11T12:54:29;11.16;48.47
71291;DHT22;59073;51.994;4.448;2023-03-11T12:56:59;11.04;46.95
71291;DHT22;59073;51.994;4.448;2023-03-11T13:08:20;10.70;47.22
71291;DHT22;59073;51.994;4.448;2023-03-11T13:10:51;10.58;49.27
71291;DHT22;59073;51.994;4.448;2023-03-11T13:13:36;10.63;50.39
71291;DHT22;59073;51.994;4.448;2023-03-11T13:18:40;10.63;45.59
71291;DHT22;59073;51.994;4.448;2023-03-11T13:27:02;10.14;47.34
71291;DHT22;59073;51.994;4.448;2023-03-11T13:37:25;10.18;44.23
71291;DHT22;59073;51.994;4.448;2023-03-11T13:42:35;10.62;47.68
71291;DHT22;59073;51.994;4.448;2023-03-11T13:45:03;10.82;42.66
71291;DHT22;59073;51.994;4.448;2023-03-11T13:47:34;10.86;43.44
71291;DHT22;59073;51.994;4.448;2023-03-11T13:50:37;10.73;41.04
71291;DHT22;59073;51.994;4.448;2023-03-11T13:53:18;10.46;43.16
71291;DHT22;59073;51.994;4.448;2023-03-11T13:55:46;10.46;42.79
71291;DHT22;59073;51.994;4.448;2023-03-11T13:58:20;10.65;46.26
71291;DHT22;59073;51.994;4.448;2023-03-11T14:00:53;10.63;47.97
71291;DHT22;59073;51.994;4.448;2023-03-11T14:03:21;10.70;44.30
71291;DHT22;59073;51.994;4.448;2023-03-11T14:06:04;10.68;44.41
71291;DHT22;59073;51.994;4.448;2023-03-11T14:08:35;10.52;43.79
71291;DHT22;59073;51.994;4.448;2023-03-11T14:11:11;10.44;39.49
71291;DHT22;59073;51.994;4.448;2023-03-11T14:13:44;10.37;38.29
71291;DHT22;59073;51.994;4.448;2023-03-11T14:19:01;10.38;40.11
71291;DHT22;59073;51.994;4.448;2023-03-11T14:21:28;10.53;42.22
71291;DHT22;59073;51.994;4.448;2023-03-11T14:23:56;10.49;41.23
71291;DHT22;59073;51.994;4.448;2023-03-11T14:28:56;9.87;37.98
71291;DHT22;59073;51.994;4.448;2023-03-11T14:31:38;9.94;43.37
71291;DHT22;59073;51.994;4.448;2023-03-11T14:34:16;10.22;44.01
71291;DHT22;59073;51.994;4.448;2023-03-11T14:36:53;10.18;41.89
71291;DHT22;59073;51.994;4.448;2023-03-11T14:42:03;10.18;42.38
71291;DHT22;59073;51.994;4.448;2023-03-11T14:44:33;10.29;42.13
71291;DHT22;59073;51.994;4.448;2023-03-11T14:47:23;10.27;42.43
71291;DHT22;59073;51.994;4.448;2023-03-11T14:49:52;10.28;43.38
71291;DHT22;59073;51.994;4.448;2023-03-11T14:52:37;10.28;44.10
71291;DHT22;59073;51.994;4.448;2023-03-11T14:55:14;10.29;44.04
71291;DHT22;59073;51.994;4.448;2023-03-11T14:58:00;10.00;44.64
71291;DHT22;59073;51.994;4.448;2023-03-11T15:00:32;9.94;44.67
71291;DHT22;59073;51.994;4.448;2023-03-11T15:03:18;10.02;45.01
71291;DHT22;59073;51.994;4.448;2023-03-11T15:05:46;10.02;43.19
71291;DHT22;59073;51.994;4.448;2023-03-11T15:08:17;10.17;42.32
71291;DHT22;59073;51.994;4.448;2023-03-11T15:13:38;9.98;45.04
71291;DHT22;59073;51.994;4.448;2023-03-11T15:16:06;9.95;45.62
71291;DHT22;59073;51.994;4.448;2023-03-11T15:18:34;9.83;44.34
71291;DHT22;59073;51.994;4.448;2023-03-11T15:21:22;9.90;44.15
71291;DHT22;59073;51.994;4.448;2023-03-11T15:24:01;9.61;43.05
71291;DHT22;59073;51.994;4.448;2023-03-11T15:26:32;9.53;44.89
71291;DHT22;59073;51.994;4.448;2023-03-11T15:29:02;9.66;43.56
71291;DHT22;59073;51.994;4.448;2023-03-11T15:31:29;9.57;44.63
71291;DHT22;59073;51.994;4.448;2023-03-11T15:34:06;9.50;43.98
71291;DHT22;59073;51.994;4.448;2023-03-11T15:36:36;9.61;43.81
71291;DHT22;59073;51.994;4.448;2023-03-11T15:39:20;9.81;44.77
71291;DHT22;59073;51.994;4.448;2023-03-11T15:42:08;9.81;45.10
71291;DHT22;59073;51.994;4.448;2023-03-11T15:45:03;9.60;45.83
71291;DHT22;59073;51.994;4.448;2023-03-11T15:47:32;9.53;47.25
71291;DHT22;59073;51.994;4.448;2023-03-11T15:50:05;9.56;44.98
71291;DHT22;59073;51.994;4.448;2023-03-11T15:52:34;9.42;46.74
71291;DHT22;59073;51.994;4.448;2023-03-11T15:54:59;9.26;45.83
71291;DHT22;59073;51.994;4.448;2023-03-11T15:57:27;9.09;46.23
71291;DHT22;59073;51.994;4.448;2023-03-11T15:59:56;9.01;46.25
71291;DHT22;59073;51.994;4.448;2023-03-11T16:02:25;8.92;47.64
71291;DHT22;59073;51.994;4.448;2023-03-11T16:04:51;8.78;50.24
71291;DHT22;59073;51.994;4.448;2023-03-11T16:07:17;8.71;49.99
71291;DHT22;59073;51.994;4.448;2023-03-11T16:09:43;8.78;49.64
71291;DHT22;59073;51.994;4.448;2023-03-11T16:12:14;8.92;49.16
71291;DHT22;59073;51.994;4.448;2023-03-11T16:14:40;8.91;48.19
71291;DHT22;59073;51.994;4.448;2023-03-11T16:17:06;8.72;48.18
71291;DHT22;59073;51.994;4.448;2023-03-11T16:19:31;8.36;51.97
71291;DHT22;59073;51.994;4.448;2023-03-11T16:21:56;8.17;54.38
71291;DHT22;59073;51.994;4.448;2023-03-11T16:24:23;7.88;54.75
71291;DHT22;59073;51.994;4.448;2023-03-11T16:26:51;7.96;54.10
71291;DHT22;59073;51.994;4.448;2023-03-11T16:29:18;7.98;55.11
71291;DHT22;59073;51.994;4.448;2023-03-11T16:31:44;7.99;55.95
71291;DHT22;59073;51.994;4.448;2023-03-11T16:34:09;8.05;56.03
71291;DHT22;59073;51.994;4.448;2023-03-11T16:36:35;8.07;57.27
71291;DHT22;59073;51.994;4.448;2023-03-11T16:39:00;8.10;57.50
71291;DHT22;59073;51.994;4.448;2023-03-11T16:41:26;8.03;56.89
71291;DHT22;59073;51.994;4.448;2023-03-11T16:43:52;7.96;57.29
71291;DHT22;59073;51.994;4.448;2023-03-11T16:46:17;7.86;56.10
71291;DHT22;59073;51.994;4.448;2023-03-11T16:48:42;7.81;56.82
71291;DHT22;59073;51.994;4.448;2023-03-11T16:51:08;7.81;56.73
71291;DHT22;59073;51.994;4.448;2023-03-11T16:53:33;7.75;56.01
71291;DHT22;59073;51.994;4.448;2023-03-11T16:55:59;7.58;56.62
71291;DHT22;59073;51.994;4.448;2023-03-11T16:58:24;7.52;56.90
71291;DHT22;59073;51.994;4.448;2023-03-11T17:00:50;7.35;57.02
71291;DHT22;59073;51.994;4.448;2023-03-11T17:03:17;7.01;57.05
71291;DHT22;59073;51.994;4.448;2023-03-11T17:05:43;6.83;58.63
71291;DHT22;59073;51.994;4.448;2023-03-11T17:08:09;6.71;58.24
71291;DHT22;59073;51.994;4.448;2023-03-11T17:10:40;6.77;58.50
71291;DHT22;59073;51.994;4.448;2023-03-11T17:13:09;6.69;58.40
71291;DHT22;59073;51.994;4.448;2023-03-11T17:15:35;6.61;57.72
71291;DHT22;59073;51.994;4.448;2023-03-11T17:18:05;6.65;59.26
71291;DHT22;59073;51.994;4.448;2023-03-11T17:20:31;6.66;60.11
71291;DHT22;59073;51.994;4.448;2023-03-11T17:22:57;6.52;59.61
71291;DHT22;59073;51.994;4.448;2023-03-11T17:25:22;6.50;60.51
71291;DHT22;59073;51.994;4.448;2023-03-11T17:27:48;6.50;61.18
71291;DHT22;59073;51.994;4.448;2023-03-11T17:30:14;6.48;61.40
71291;DHT22;59073;51.994;4.448;2023-03-11T17:32:40;6.32;60.33
71291;DHT22;59073;51.994;4.448;2023-03-11T17:35:06;6.25;60.06
71291;DHT22;59073;51.994;4.448;2023-03-11T17:37:32;6.36;60.67
71291;DHT22;59073;51.994;4.448;2023-03-11T17:39:58;6.38;60.24